This is the latest recevied weather packets stored in our database for station/object N6XE. If no packets are shown the sender has not sent any weather packets the latest 10 day(s).
| Time | Temp. | Humidity | Pressure | Rain* | Wind** | Luminosity | Snow |
|---|---|---|---|---|---|---|---|
| 1777776318 | 18.33° C | 73% | 1012.4 hPa | 0 mm | - | - | - |
| 1777774525 | 19.44° C | 69% | 1012.1 hPa | 0 mm | - | - | - |
| 1777768520 | 23.33° C | 62% | 1012.2 hPa | 0 mm | - | - | - |
| 1777760722 | 22.22° C | 59% | 1013.6 hPa | 0 mm | - | - | - |
| 1777756537 | 23.33° C | 58% | 1014.4 hPa | 0 mm | - | - | - |
| 1777754729 | 22.78° C | 58% | 1014.8 hPa | 0 mm | - | - | - |
| 1777753520 | 21.67° C | 63% | 1014.9 hPa | 0 mm | - | - | - |
| 1777751715 | 21.11° C | 62% | 1015.2 hPa | 0 mm | - | - | - |
| 1777748117 | 22.22° C | 63% | 1015.2 hPa | 0 mm | - | - | - |
| 1777747535 | 21.11° C | 66% | 1015.3 hPa | 0 mm | - | - | - |
| 1777741528 | 17.78° C | 78% | 1015.3 hPa | 0 mm | - | - | - |
| 1777739127 | 17.22° C | 82% | 1015 hPa | 0 mm | - | - | - |
| 1777736726 | 16.11° C | 86% | 1014.9 hPa | 0 mm | - | - | - |
| 1777735517 | 15.56° C | 88% | 1014.8 hPa | 0 mm | - | - | - |
| 1777727719 | 12.78° C | 98% | 1013.9 hPa | 0 mm | - | - | - |
| 1777719326 | 13.33° C | 94% | 1013.9 hPa | 0 mm | - | - | - |
| 1777718730 | 13.33° C | 93% | 1013.9 hPa | 0 mm | - | - | - |
| 1777718116 | 13.33° C | 93% | 1013.8 hPa | 0 mm | - | - | - |
| 1777715120 | 13.89° C | 91% | 1014 hPa | 0 mm | - | - | - |
| 1777714524 | 13.89° C | 91% | 1014.1 hPa | 0 mm | - | - | - |
| 1777712123 | 14.44° C | 88% | 1014.4 hPa | 0 mm | - | - | - |
| 1777711527 | 14.44° C | 88% | 1014.3 hPa | 0 mm | - | - | - |
| 1777707917 | 15.56° C | 83% | 1014.4 hPa | 0 mm | - | - | - |
| 1777701924 | 17.78° C | 74% | 1014.3 hPa | 0 mm | - | - | - |
| 1777700733 | 17.78° C | 73% | 1014.3 hPa | 0 mm | - | - | - |
* Rain latest hour (hover to see other rain measurements)
** Current wind speed in m/s (hover to see current wind gust speed)